• Join FlightAware (Why Join?)
  • Login
  • US Flag 
Rudolph Flight #1: Scheduled 
11:56PM EST


 

Airport Tracker/Info


-or-


 

Live Flight TrackerFlight Track Log ✈ SWA1533 ✈ 09-Apr-2013 ✈ KBWI - KPHX

Flight Track Log - Related Links

Times and Time Zones

All times are in EDT time to prevent confusion due to time zone crossing. See the SWA1533 flight status page for this flight to view local times or setup timezone preferences in your user account.

Time Position Orientation Groundspeed Altitude Reporting Facility
EDT Latitude Longitude Course Direction KTS MPH feet Rate Location/Type
09:16PM 39.1333 -76.7000 247° West 215 247 4,500  Level Potomac TRACON
09:17PM 39.1667 -76.7667 303° West 244 281 7,500 3,600 Climbing Potomac TRACON
09:18PM 39.1833 -76.8500 284° West 248 285 11,700 3,600 Climbing Potomac TRACON
09:19PM 39.2167 -76.9333 297° West 268 308 14,800 2,280 Climbing Potomac TRACON
09:20PM 39.2167 -77.0500 270° West 324 373 16,300 2,280 Climbing Potomac TRACON
09:22PM 39.0767 -77.2733 231° Southwest 348 400 22,500 1,980 Climbing Washington Center
09:23PM 38.9983 -77.3706 224° Southwest 379 436 23,000 1,140 Climbing Washington Center
09:24PM 38.9733 -77.5061 257° West 374 430 24,800 1,860 Climbing Washington Center
09:25PM 38.9500 -77.6469 258° West 395 455 26,800 1,080 Climbing Washington Center
09:26PM 38.9247 -77.7769 256° West 416 479 27,000 60 Climbing Washington Center
09:27PM 38.9014 -77.9231 258° West 416 479 27,000 600 Level Washington Center
09:28PM 38.8775 -78.0636 258° West 416 479 28,200 1,500 Climbing Washington Center
09:29PM 38.8536 -78.2119 258° West 416 479 30,000 900 Climbing Washington Center
09:30PM 38.8503 -78.3611 268° West 421 484 30,000  Level Washington Center
09:31PM 38.8489 -78.5078 269° West 421 484 30,000  Level Washington Center
09:32PM 38.8450 -78.6594 268° West 421 484 30,000  Level Washington Center
09:33PM 38.8433 -78.8061 269° West 421 484 30,000 60 Level Washington Center
09:34PM 38.8414 -78.9525 269° West 421 484 30,200 1,080 Climbing Washington Center
09:35PM 38.8394 -79.0992 269° West 421 484 32,200 1,800 Climbing Washington Center
09:36PM 38.8286 -79.2450 265° West 421 484 33,900 1,620 Climbing Washington Center
09:37PM 38.7972 -79.3900 255° West 421 484 35,500 1,560 Climbing Washington Center
09:38PM 38.7736 -79.5353 258° West 426 490 37,100 1,200 Climbing Washington Center
09:39PM 38.7372 -79.6906 253° West 426 490 38,000 420 Climbing Washington Center
09:40PM 38.7053 -79.8269 253° West 421 484 38,000  Level Washington Center
09:41PM 38.6711 -79.9686 253° West 414 476 38,000  Level Washington Center
09:42PM 38.6389 -80.1075 253° West 414 476 38,000  Level Washington Center
09:44PM 38.5750 -80.3589 252° West 403 464 38,000  Level Indianapolis Center
09:45PM 38.5453 -80.4836 253° West 403 464 38,000  Level Indianapolis Center
09:46PM 38.5125 -80.6203 253° West 403 464 38,000  Level Indianapolis Center
09:47PM 38.4797 -80.7564 253° West 400 460 38,000  Level Indianapolis Center
09:48PM 38.4453 -80.8933 252° West 402 463 38,000  Level Indianapolis Center
09:49PM 38.4122 -81.0306 253° West 402 463 38,000  Level Indianapolis Center
09:50PM 38.3775 -81.1681 252° West 405 466 38,000  Level Indianapolis Center
09:51PM 38.3433 -81.3056 252° West 404 465 38,000  Level Indianapolis Center
09:52PM 38.3100 -81.4442 253° West 405 466 38,000  Level Indianapolis Center
09:53PM 38.2681 -81.6081 252° West 403 464 38,000  Level Indianapolis Center
09:54PM 38.2333 -81.7464 252° West 406 467 38,000  Level Indianapolis Center
09:55PM 38.1983 -81.8831 252° West 405 466 38,000  Level Indianapolis Center
09:56PM 38.1639 -82.0206 252° West 407 468 38,000  Level Indianapolis Center
09:57PM 38.1283 -82.1578 252° West 408 470 38,000  Level Indianapolis Center
09:58PM 38.0897 -82.3061 252° West 411 473 38,000  Level Indianapolis Center
09:59PM 38.0536 -82.4436 252° West 411 473 38,000  Level Indianapolis Center
10:00PM 38.0181 -82.5828 252° West 415 478 38,000  Level Indianapolis Center
10:01PM 37.9819 -82.7214 252° West 416 479 38,000  Level Indianapolis Center
10:02PM 37.9453 -82.8589 251° West 415 478 38,000  Level Indianapolis Center
10:03PM 37.9086 -82.9967 251° West 413 475 38,000  Level Indianapolis Center
10:04PM 37.8725 -83.1358 252° West 415 478 38,000  Level Indianapolis Center
10:05PM 37.8353 -83.2714 251° West 411 473 38,000  Level Indianapolis Center
10:06PM 37.7992 -83.4072 251° West 408 470 38,000  Level Indianapolis Center
10:07PM 37.7561 -83.5650 251° West 408 470 38,000  Level Indianapolis Center
10:08PM 37.7183 -83.7017 251° West 412 474 38,000  Level Indianapolis Center
10:09PM 37.6811 -83.8369 251° West 410 472 38,000  Level Indianapolis Center
10:10PM 37.6442 -83.9739 251° West 411 473 38,000  Level Indianapolis Center
10:11PM 37.6053 -84.1100 250° West 411 473 38,000 300 Level Indianapolis Center
10:12PM 37.5683 -84.2475 251° West 415 478 38,700 960 Climbing Indianapolis Center
10:13PM 37.5303 -84.3817 250° West 409 471 40,000 600 Climbing Indianapolis Center
10:14PM 37.4936 -84.5119 251° West 398 458 40,000  Level Indianapolis Center
10:16PM 37.4558 -84.6439 250° West 400 460 40,000  Level Indianapolis Center
10:17PM 37.4122 -84.7961 250° West 398 458 40,000  Level Indianapolis Center
10:18PM 37.3756 -84.9269 251° West 397 457 40,000  Level Indianapolis Center
10:19PM 37.3383 -85.0556 250° West 393 452 40,000  Level Indianapolis Center
10:20PM 37.3011 -85.1844 250° West 391 450 40,000  Level Indianapolis Center
10:21PM 37.2633 -85.3125 250° West 391 450 40,000  Level Indianapolis Center
10:22PM 37.2264 -85.4411 250° West 391 450 40,000  Level Indianapolis Center
10:23PM 37.1908 -85.5614 250° West 394 453 40,000  Level Indianapolis Center
10:24PM 37.1528 -85.6919 250° West 395 455 40,000  Level Indianapolis Center
10:25PM 37.1150 -85.8222 250° West 395 455 40,000  Level Indianapolis Center
10:26PM 37.0758 -85.9525 249° West 397 457 40,000  Level Indianapolis Center
10:27PM 37.0308 -86.1022 249° West 392 451 40,000  Level Indianapolis Center
10:28PM 36.9922 -86.2325 250° West 396 456 40,000  Level Indianapolis Center
10:29PM 36.9528 -86.3628 249° West 398 458 40,000  Level Indianapolis Center
10:30PM 36.9117 -86.4925 248° West 399 459 40,000  Level Indianapolis Center
10:31PM 36.8658 -86.6194 246° West 399 459 40,000  Level Indianapolis Center
10:32PM 36.8211 -86.7492 247° West 402 463 40,000  Level Memphis Center
10:33PM 36.7747 -86.8756 245° Southwest 402 463 40,000  Level Memphis Center
10:34PM 36.7303 -87.0017 246° West 402 463 40,000  Level Memphis Center
10:35PM 36.6836 -87.1281 245° Southwest 402 463 40,000  Level Memphis Center
10:36PM 36.6367 -87.2539 245° Southwest 402 463 40,000  Level Memphis Center
10:37PM 36.5878 -87.3800 244° Southwest 402 463 40,000  Level Memphis Center
10:38PM 36.5428 -87.5056 246° West 407 468 40,000  Level Memphis Center
10:39PM 36.4914 -87.6417 245° Southwest 402 463 40,000  Level Memphis Center
10:40PM 36.4422 -87.7669 244° Southwest 402 463 40,000  Level Memphis Center
10:41PM 36.3986 -87.8894 246° West 402 463 40,000  Level Memphis Center
10:42PM 36.3511 -88.0147 245° Southwest 402 463 40,000  Level Memphis Center
10:43PM 36.3094 -88.1317 246° West 402 463 40,000  Level Memphis Center
10:44PM 36.2617 -88.2542 244° Southwest 394 453 40,000  Level Memphis Center
10:45PM 36.2136 -88.3789 245° Southwest 394 453 40,000  Level Memphis Center
10:46PM 36.1675 -88.5033 245° Southwest 394 453 40,000  Level Memphis Center
10:47PM 36.1194 -88.6253 244° Southwest 394 453 40,000  Level Memphis Center
10:48PM 36.0711 -88.7494 244° Southwest 394 453 40,000  Level Memphis Center
10:49PM 36.0306 -88.8453 242° Southwest 399 459 40,000  Level Memphis Center
10:50PM 35.9739 -88.9925 245° Southwest 399 459 40,000  Level Memphis Center
10:51PM 35.9353 -89.0906 244° Southwest 399 459 40,000  Level Memphis Center
10:52PM 35.8844 -89.2244 245° Southwest 404 465 40,000  Level Memphis Center
10:53PM 35.8356 -89.3481 244° Southwest 404 465 40,000  Level Memphis Center
10:54PM 35.7883 -89.4717 245° Southwest 404 465 40,000  Level Memphis Center
10:55PM 35.7372 -89.5975 243° Southwest 404 465 40,000  Level Memphis Center
10:56PM 35.6897 -89.7181 244° Southwest 404 465 40,000  Level Memphis Center
10:57PM 35.6467 -89.8383 246° West 397 457 40,000  Level Memphis Center
10:58PM 35.5969 -89.9639 244° Southwest 402 463 40,000  Level Memphis Center
10:59PM 35.5494 -90.0867 245° Southwest 402 463 40,000  Level Memphis Center
11:00PM 35.4953 -90.2219 244° Southwest 402 463 40,000  Level Memphis Center
11:01PM 35.4475 -90.3417 244° Southwest 402 463 40,000  Level Memphis Center
11:02PM 35.4058 -90.4614 247° West 397 457 40,000  Level Memphis Center
11:03PM 35.4119 -90.5992 273° West 391 450 40,000  Level Memphis Center
11:04PM 35.4197 -90.7342 274° West 391 450 40,000  Level Memphis Center
11:05PM 35.4256 -90.8717 273° West 403 464 40,000  Level Memphis Center
11:06PM 35.4333 -91.0069 274° West 408 470 40,000  Level Memphis Center
11:07PM 35.4408 -91.1394 274° West 403 464 40,000  Level Memphis Center
11:08PM 35.4464 -91.2744 273° West 403 464 40,000  Level Memphis Center
11:09PM 35.4514 -91.4097 273° West 403 464 40,000  Level Memphis Center
11:10PM 35.4567 -91.5372 273° West 396 456 40,000  Level Memphis Center
11:11PM 35.4636 -91.6647 274° West 385 443 40,000  Level Memphis Center
11:12PM 35.4686 -91.7947 273° West 385 443 40,000  Level Memphis Center
11:13PM 35.4753 -91.9250 274° West 385 443 40,000  Level Memphis Center
11:14PM 35.4797 -92.0550 272° West 385 443 40,000  Level Memphis Center
11:15PM 35.4842 -92.1903 272° West 385 443 40,000  Level Memphis Center
11:16PM 35.4906 -92.3206 273° West 385 443 40,000  Level Memphis Center
11:17PM 35.4947 -92.4506 272° West 385 443 40,000  Level Memphis Center
11:18PM 35.4986 -92.5808 272° West 385 443 40,000  Level Memphis Center
11:19PM 35.5047 -92.7111 273° West 385 443 40,000  Level Memphis Center
11:20PM 35.5086 -92.8336 272° West 400 460 40,000  Level Memphis Center
11:21PM 35.5142 -92.9714 273° West 400 460 40,000  Level Memphis Center
11:22PM 35.5172 -93.1092 272° West 405 466 40,000  Level Memphis Center
11:23PM 35.5225 -93.2472 273° West 405 466 40,000  Level Memphis Center
11:24PM 35.5275 -93.3878 273° West 412 474 40,000  Level Memphis Center
11:25PM 35.5303 -93.5281 271° West 412 474 40,000  Level Memphis Center
11:26PM 35.5350 -93.6736 272° West 418 481 40,000  Level Memphis Center
11:27PM 35.5375 -93.8117 271° West 418 481 40,000  Level Memphis Center
11:28PM 35.5417 -93.9522 272° West 425 489 40,000  Level Memphis Center
11:29PM 35.5439 -94.0950 271° West 425 489 40,000  Level Memphis Center
11:30PM 35.5500 -94.2331 273° West 420 483 40,000  Level Memphis Center
11:31PM 35.5533 -94.3914 272° West 420 483 40,000  Level Memphis Center
11:32PM 35.5536 -94.5114 270° West 420 483 40,000  Level Memphis Center
11:33PM 35.5589 -94.7225 272° West 400 460 40,000  Level Kansas City Center
11:34PM 35.5622 -94.7803 274° West 401 461 40,000  Level Fort Worth Center
11:35PM 35.5628 -94.9131 270° West 396 456 40,000  Level Fort Worth Center
11:36PM 35.5653 -95.0456 271° West 396 456 40,000  Level Fort Worth Center
11:37PM 35.5614 -95.1758 268° West 396 456 40,000  Level Fort Worth Center
11:38PM 35.5406 -95.2989 258° West 384 442 40,000  Level Fort Worth Center
11:39PM 35.5178 -95.4244 257° West 379 436 40,000  Level Fort Worth Center
11:40PM 35.4967 -95.5522 259° West 379 436 40,000  Level Fort Worth Center
11:41PM 35.4756 -95.6753 258° West 374 430 40,000  Level Fort Worth Center
11:42PM 35.4544 -95.8056 259° West 379 436 40,000  Level Fort Worth Center
11:43PM 35.4353 -95.9436 260° West 379 436 40,000  Level Fort Worth Center
11:44PM 35.4178 -96.0711 260° West 379 436 40,000  Level Fort Worth Center
11:45PM 35.4003 -96.2014 261° West 379 436 40,000  Level Fort Worth Center
11:46PM 35.3850 -96.3289 262° West 384 442 40,000  Level Fort Worth Center
11:47PM 35.3483 -96.4489 249° West 384 442 40,000  Level Fort Worth Center
11:48PM 35.3075 -96.5639 247° West 379 436 40,000  Level Fort Worth Center
11:49PM 35.2644 -96.6814 246° West 379 436 40,000  Level Fort Worth Center
11:50PM 35.2233 -96.8036 248° West 384 442 40,000  Level Fort Worth Center
11:51PM 35.1800 -96.9208 246° West 384 442 40,000  Level Fort Worth Center
11:52PM 35.1386 -97.0428 247° West 384 442 40,000  Level Fort Worth Center
11:53PM 35.0953 -97.1622 246° West 384 442 40,000  Level Fort Worth Center
11:54PM 35.0578 -97.2842 249° West 384 442 40,000  Level Fort Worth Center
11:55PM 35.0244 -97.3856 248° West 395 455 40,000  Level Fort Worth Center
11:56PM 34.9764 -97.5200 246° West 395 455 40,000  Level Fort Worth Center
11:57PM 34.9389 -97.6414 249° West 395 455 40,000  Level Fort Worth Center
11:58PM 34.8947 -97.7578 245° Southwest 395 455 40,000  Level Fort Worth Center
11:59PM 34.8297 -97.8561 231° Southwest 385 443 40,000  Level Fort Worth Center
12:00AM 34.7606 -97.9519 229° Southwest 380 437 40,000  Level Fort Worth Center
12:01AM 34.6933 -98.0475 229° Southwest 380 437 40,000  Level Fort Worth Center
12:02AM 34.6281 -98.1453 231° Southwest 380 437 40,000  Level Fort Worth Center
12:03AM 34.5608 -98.2456 231° Southwest 380 437 40,000  Level Fort Worth Center
12:04AM 34.4933 -98.3458 231° Southwest 385 443 40,000  Level Fort Worth Center
12:05AM 34.4031 -98.4228 215° Southwest 385 443 40,000  Level Fort Worth Center
12:06AM 34.3083 -98.4922 211° Southwest 396 456 40,000  Level Fort Worth Center
12:07AM 34.2139 -98.5614 211° Southwest 401 461 40,000  Level Fort Worth Center
12:08AM 34.1153 -98.6200 206° Southwest 401 461 40,000  Level Fort Worth Center
12:09AM 34.0147 -98.6714 203° Southwest 395 455 40,000  Level Fort Worth Center
12:10AM 33.9181 -98.7250 205° Southwest 389 448 40,000  Level Fort Worth Center
12:11AM 33.8194 -98.7786 204° Southwest 389 448 40,000  Level Fort Worth Center
12:12AM 33.7208 -98.8319 204° Southwest 389 448 40,000  Level Fort Worth Center
12:13AM 33.6242 -98.8853 205° Southwest 384 442 40,000  Level Fort Worth Center
12:14AM 33.5294 -98.9411 206° Southwest 377 434 40,000  Level Fort Worth Center
12:15AM 33.4389 -99.0092 212° Southwest 383 441 40,000  Level Fort Worth Center
12:16AM 33.3483 -99.0772 212° Southwest 383 441 40,000  Level Fort Worth Center
12:17AM 33.2556 -99.1450 211° Southwest 388 447 40,000  Level Fort Worth Center
12:18AM 33.1647 -99.2125 212° Southwest 393 452 40,000  Level Fort Worth Center
12:19AM 33.0803 -99.2853 216° Southwest 393 452 40,000  Level Fort Worth Center
12:20AM 33.0058 -99.3753 225° Southwest 383 441 40,000  Level Fort Worth Center
12:21AM 32.9314 -99.4653 225° Southwest 378 435 40,000  Level Fort Worth Center
12:22AM 32.8567 -99.5575 226° Southwest 390 449 40,000  Level Fort Worth Center
12:23AM 32.7842 -99.6497 227° Southwest 390 449 40,000  Level Fort Worth Center
12:24AM 32.7008 -99.7539 226° Southwest 390 449 40,000  Level Fort Worth Center
12:25AM 32.6431 -99.8311 228° Southwest 398 458 40,000  Level Fort Worth Center
12:26AM 32.5531 -99.9422 226° Southwest 388 447 40,000  Level Fort Worth Center
12:27AM 32.5031 -100.0442 240° Southwest 381 438 40,000  Level Fort Worth Center
12:28AM 32.4836 -100.1667 259° West 364 419 40,000  Level Fort Worth Center
12:29AM 32.4911 -100.2975 274° West 378 435 40,000  Level Fort Worth Center
12:30AM 32.5175 -100.4217 284° West 388 447 40,000  Level Fort Worth Center
12:31AM 32.5436 -100.5506 284° West 393 452 40,000  Level Fort Worth Center
12:32AM 32.5653 -100.6869 281° West 403 464 40,000  Level Fort Worth Center
12:33AM 32.5886 -100.8233 282° West 416 479 40,000  Level Fort Worth Center
12:34AM 32.6083 -100.9425 281° West 416 479 40,000  Level Fort Worth Center
12:35AM 32.6506 -101.0675 292° West 411 473 40,000  Level Fort Worth Center
12:36AM 32.6908 -101.1925 291° West 411 473 40,000  Level Fort Worth Center
12:37AM 32.7328 -101.3178 292° West 411 473 40,000  Level Fort Worth Center
12:38AM 32.7708 -101.4381 291° West 411 473 40,000  Level Fort Worth Center
12:39AM 32.8125 -101.5633 292° West 411 473 40,000  Level Fort Worth Center
12:40AM 32.8603 -101.7017 292° West 406 467 40,000  Level Fort Worth Center
12:41AM 32.8997 -101.8272 291° West 411 473 40,000  Level Fort Worth Center
12:42AM 32.9369 -101.9503 290° West 411 473 40,000  Level Fort Worth Center
12:43AM 32.9706 -102.0561 291° West 400 460 40,000  Level Fort Worth Center
12:44AM 33.0114 -102.1919 290° West 399 459 40,000  Level Fort Worth Center
12:45AM 33.0700 -102.3700 291° West 383 441 40,000  Level Albuquerque Center
12:47AM 33.1064 -102.4878 290° West 383 441 40,000  Level Albuquerque Center
12:48AM 33.1439 -102.6044 291° West 381 438 40,000  Level Albuquerque Center
12:49AM 33.1808 -102.7250 290° West 384 442 40,000  Level Albuquerque Center
12:50AM 33.2244 -102.8725 290° West 392 451 40,000  Level Albuquerque Center
12:51AM 33.2633 -102.9928 291° West 392 451 40,000  Level Albuquerque Center
12:52AM 33.3011 -103.1175 290° West 397 457 40,000  Level Albuquerque Center
12:53AM 33.3392 -103.2439 290° West 403 464 40,000  Level Albuquerque Center
12:54AM 33.3767 -103.3742 289° West 410 472 40,000  Level Albuquerque Center
12:55AM 33.4164 -103.5031 290° West 413 475 40,000  Level Albuquerque Center
12:56AM 33.4556 -103.6347 290° West 418 481 40,000  Level Albuquerque Center
12:57AM 33.4992 -103.7753 290° West 420 483 40,000  Level Albuquerque Center
12:58AM 33.5397 -103.9078 290° West 424 488 40,000  Level Albuquerque Center
12:59AM 33.5819 -104.0517 289° West 426 490 40,000  Level Albuquerque Center
01:00AM 33.6217 -104.1858 290° West 428 493 40,000  Level Albuquerque Center
01:01AM 33.6603 -104.3214 289° West 430 495 40,000  Level Albuquerque Center
01:02AM 33.6997 -104.4553 290° West 428 493 40,000  Level Albuquerque Center
01:03AM 33.7381 -104.5881 289° West 424 488 40,000  Level Albuquerque Center
01:04AM 33.7797 -104.7314 289° West 424 488 40,000  Level Albuquerque Center
01:05AM 33.8192 -104.8653 290° West 428 493 40,000  Level Albuquerque Center
01:06AM 33.8586 -104.9994 290° West 428 493 40,000  Level Albuquerque Center
01:07AM 33.8975 -105.1356 289° West 431 496 40,000  Level Albuquerque Center
01:08AM 33.9353 -105.2700 289° West 429 494 40,000  Level Albuquerque Center
01:09AM 33.9742 -105.3983 290° West 434 499 40,000  Level Albuquerque Center
01:10AM 34.0108 -105.5331 288° West 429 494 40,000  Level Albuquerque Center
01:11AM 34.0494 -105.6664 289° West 421 484 40,000  Level Albuquerque Center
01:12AM 34.0844 -105.8022 287° West 421 484 40,000  Level Albuquerque Center
01:13AM 34.1233 -105.9392 289° West 423 487 40,000  Level Albuquerque Center
01:14AM 34.1603 -106.0761 288° West 425 489 40,000  Level Albuquerque Center
01:15AM 34.1997 -106.2181 289° West 436 502 40,000  Level Albuquerque Center
01:16AM 34.2386 -106.3581 289° West 444 511 40,000  Level Albuquerque Center
01:17AM 34.2761 -106.4975 288° West 441 507 40,000  Level Albuquerque Center
01:18AM 34.3136 -106.6339 288° West 436 502 40,000  Level Albuquerque Center
01:19AM 34.3525 -106.7728 289° West 435 501 40,000  Level Albuquerque Center
01:20AM 34.3897 -106.9172 287° West 443 510 40,000  Level Albuquerque Center
01:21AM 34.4283 -107.0617 288° West 447 514 40,000  Level Albuquerque Center
01:22AM 34.4667 -107.2033 288° West 443 510 40,000  Level Albuquerque Center
01:23AM 34.5039 -107.3456 288° West 441 507 40,000  Level Albuquerque Center
01:24AM 34.5411 -107.4886 288° West 442 509 40,000  Level Albuquerque Center
01:25AM 34.5639 -107.6339 281° West 441 507 40,000  Level Albuquerque Center
01:26AM 34.5606 -107.8100 269° West 437 503 40,000  Level Albuquerque Center
01:27AM 34.5578 -107.9581 269° West 438 504 40,000  Level Albuquerque Center
01:28AM 34.5564 -108.1042 269° West 435 501 40,000  Level Albuquerque Center
01:29AM 34.5544 -108.2511 269° West 435 501 40,000  Level Albuquerque Center
01:30AM 34.5517 -108.3969 269° West 434 499 40,000  Level Albuquerque Center
01:31AM 34.5481 -108.5536 268° West 433 498 40,000  Level Albuquerque Center
01:32AM 34.5453 -108.6922 269° West 431 496 40,000  Level Albuquerque Center
01:33AM 34.5436 -108.8314 269° West 431 496 40,000  Level Albuquerque Center
01:34AM 34.5400 -108.9694 268° West 429 494 40,000  Level Albuquerque Center
01:35AM 34.5347 -109.1289 268° West 426 490 40,000  Level Albuquerque Center
01:36AM 34.5308 -109.2667 268° West 426 490 40,000  Level Albuquerque Center
01:37AM 34.5281 -109.4061 269° West 429 494 40,000  Level Albuquerque Center
01:38AM 34.5100 -109.5664 262° West 433 498 40,000  Level Albuquerque Center
01:39AM 34.4658 -109.6950 247° West 437 503 40,000  Level Albuquerque Center
01:40AM 34.4228 -109.8267 248° West 437 503 40,000  Level Albuquerque Center
01:41AM 34.3714 -109.9764 247° West 433 498 40,000 -600 Level Albuquerque Center
01:42AM 34.3281 -110.1058 248° West 433 498 38,800 -2,220 Descending Albuquerque Center
01:43AM 34.2839 -110.2386 248° West 439 505 35,600 -3,360 Descending Albuquerque Center
01:44AM 34.2342 -110.3842 248° West 451 519 32,100 -3,480 Descending Albuquerque Center
01:45AM 34.1825 -110.5289 247° West 471 542 28,600 -3,000 Descending Albuquerque Center
01:46AM 34.1367 -110.6625 248° West 447 514 26,000 -2,400 Descending Albuquerque Center
01:47AM 34.0975 -110.7794 248° West 417 480 23,800 -2,280 Descending Albuquerque Center
01:48AM 34.0558 -110.8997 247° West 397 457 21,500 -2,220 Descending Albuquerque Center
01:49AM 34.0169 -111.0125 247° West 376 433 19,400 -2,220 Descending Albuquerque Center
01:50AM 33.9794 -111.1203 247° West 355 409 17,100 -2,340 Descending Albuquerque Center
01:51AM 33.9381 -111.2450 248° West 334 384 14,700 -2,100 Descending Albuquerque Center
01:52AM 33.9033 -111.3428 247° West 319 367 12,900 -1,920 Descending Albuquerque Center
01:53AM 33.8592 -111.4258 237° Southwest 299 344 10,900 -1,620 Descending Albuquerque Center
01:54AM 33.7903 -111.4875 217° Southwest 308 354 9,700 -1,020 Descending Albuquerque Center
01:55AM 33.7256 -111.5469 217° Southwest 293 337 8,900 -900 Descending Albuquerque Center
01:56AM 33.6633 -111.6028 217° Southwest 280 322 7,900 -480 Descending Albuquerque Center
01:57AM 33.6014 -111.6597 217° Southwest 279 321 8,000 -900 Climbing Albuquerque Center
01:58AM 33.5381 -111.7164 217° Southwest 283 326 6,200 -1,320 Descending Albuquerque Center
01:59AM 33.4753 -111.7739 217° Southwest 282 325 5,400 -1,200 Descending Albuquerque Center
02:00AM 33.4247 -111.8208 218° Southwest 232 267 3,800 -1,200 Descending Albuquerque Center
02:01AM 33.4303 -111.8703 278° West 152 175 3,100 -720 Descending Albuquerque Center
02:02AM 33.4308 -111.9167 271° West 141 162 2,400 -780 Descending Albuquerque Center
02:03AM 33.4317 -111.9614 271° West 135 155 1,600 -720 Descending Albuquerque Center
02:04AM 33.4308 -112.0072 269° West 134 154 1,000 -600 Descending Albuquerque Center
02:06AM 33.4333 -112.0000 90° East  Level FlightAware Approximate